Time;durP1;ratioP1;P1;durP2;ratioP2;P2;SDS_P1;SDS_P2;PMS_P1;PMS_P2;Temp;Humidity;BMP_temperature;BMP_pressure;BME280_temperature;BME280_humidity;BME280_pressure;Samples;Min_cycle;Max_cycle;Signal;HPM_P1;HPM_P2
2022/06/29 00:00:16;;;;;;;0.00;0.00;;;18.20;68.50;;;;;;5050266;28;20082;-73
2022/06/29 00:02:43;;;;;;;0.00;0.00;;;18.20;68.60;;;;;;5049872;28;20056;-73
2022/06/29 00:05:11;;;;;;;0.00;0.00;;;18.20;68.20;;;;;;5050338;28;20081;-74
2022/06/29 00:07:36;;;;;;;0.00;0.00;;;18.10;68.10;;;;;;5050008;28;20068;-74
2022/06/29 00:10:03;;;;;;;0.00;0.00;;;18.10;67.60;;;;;;5049379;28;20060;-74
2022/06/29 00:12:30;;;;;;;0.10;0.10;;;18.00;69.00;;;;;;5049134;28;20053;-74
2022/06/29 00:14:55;;;;;;;0.00;0.00;;;18.00;69.20;;;;;;5049580;28;20048;-74
2022/06/29 00:17:22;;;;;;;0.00;0.00;;;18.10;69.50;;;;;;5049264;28;20043;-74
2022/06/29 00:19:48;;;;;;;0.00;0.00;;;18.10;69.70;;;;;;5049604;28;20099;-74
2022/06/29 00:22:14;;;;;;;0.00;0.00;;;18.00;69.90;;;;;;5049137;28;20044;-74
2022/06/29 00:24:39;;;;;;;0.00;0.00;;;18.00;69.90;;;;;;5049433;28;20391;-74
2022/06/29 00:27:05;;;;;;;0.00;0.00;;;18.00;69.40;;;;;;5049171;28;20044;-74
2022/06/29 00:29:31;;;;;;;0.00;0.00;;;18.00;69.10;;;;;;5048045;28;20452;-73
2022/06/29 00:31:57;;;;;;;0.00;0.00;;;17.90;69.10;;;;;;5048658;28;20052;-74
2022/06/29 00:34:22;;;;;;;0.00;0.00;;;17.90;69.60;;;;;;5049849;28;20060;-74
2022/06/29 00:36:48;;;;;;;0.00;0.00;;;17.90;69.20;;;;;;5049064;28;20506;-74
2022/06/29 00:39:13;;;;;;;0.20;0.20;;;17.90;69.10;;;;;;5048989;28;20076;-74
2022/06/29 00:41:40;;;;;;;0.00;0.00;;;17.80;69.70;;;;;;5049068;28;20075;-74
2022/06/29 00:44:09;;;;;;;0.00;0.00;;;17.80;69.60;;;;;;5047830;28;20048;-73
2022/06/29 00:46:42;;;;;;;0.00;0.00;;;17.80;70.00;;;;;;5049028;28;20037;-74
2022/06/29 00:49:09;;;;;;;0.00;0.00;;;17.80;70.00;;;;;;5045799;28;20053;-74
2022/06/29 00:51:35;;;;;;;0.00;0.00;;;17.90;70.00;;;;;;5048934;28;20048;-73
2022/06/29 00:54:04;;;;;;;0.00;0.00;;;17.90;70.30;;;;;;5049259;28;20041;-73
2022/06/29 00:56:31;;;;;;;0.00;0.00;;;17.90;70.80;;;;;;5048971;28;20106;-73
2022/06/29 00:59:01;;;;;;;0.00;0.00;;;17.80;70.60;;;;;;5048540;28;20064;-74
2022/06/29 01:01:29;;;;;;;0.00;0.00;;;17.90;71.10;;;;;;5048997;28;20056;-74
2022/06/29 01:03:54;;;;;;;0.00;0.00;;;17.80;71.10;;;;;;5048828;28;20045;-74
2022/06/29 01:06:20;;;;;;;0.00;0.00;;;17.80;71.10;;;;;;5048894;28;20049;-74
2022/06/29 01:08:46;;;;;;;0.00;0.00;;;17.80;71.10;;;;;;5048970;28;20102;-74
2022/06/29 01:11:12;;;;;;;0.00;0.00;;;17.80;71.10;;;;;;5048936;28;20501;-74
2022/06/29 01:13:44;;;;;;;0.00;0.00;;;17.80;71.20;;;;;;5048702;28;20045;-74
2022/06/29 01:16:10;;;;;;;0.00;0.00;;;17.70;71.30;;;;;;5049065;28;20401;-74
2022/06/29 01:18:36;;;;;;;0.00;0.00;;;17.70;71.60;;;;;;5048934;28;20053;-74
2022/06/29 01:21:08;;;;;;;0.00;0.00;;;17.70;71.50;;;;;;5048941;28;20178;-74
2022/06/29 01:23:33;;;;;;;0.00;0.00;;;17.60;71.30;;;;;;5047523;28;20417;-74
2022/06/29 01:26:04;;;;;;;0.00;0.00;;;17.60;71.60;;;;;;5047074;28;20049;-74
2022/06/29 01:28:30;;;;;;;0.00;0.00;;;17.60;71.80;;;;;;5048478;28;20052;-74
2022/06/29 01:30:56;;;;;;;0.00;0.00;;;17.60;71.70;;;;;;5044702;28;20072;-75
2022/06/29 01:33:22;;;;;;;0.00;0.00;;;17.60;71.30;;;;;;5048524;28;20087;-75
2022/06/29 01:35:47;;;;;;;0.00;0.00;;;17.50;71.30;;;;;;5048933;28;20574;-72
2022/06/29 01:38:13;;;;;;;0.00;0.00;;;17.50;71.00;;;;;;5048188;28;20044;-72
2022/06/29 01:40:38;;;;;;;0.00;0.00;;;17.50;71.30;;;;;;5048774;28;20451;-72
2022/06/29 01:43:04;;;;;;;0.00;0.00;;;17.40;71.90;;;;;;5048394;28;20101;-72
2022/06/29 01:45:30;;;;;;;0.00;0.00;;;17.50;71.60;;;;;;5047556;28;20139;-72
2022/06/29 01:47:55;;;;;;;0.00;0.00;;;17.40;71.80;;;;;;5048504;28;20045;-72
2022/06/29 01:50:21;;;;;;;0.00;0.00;;;17.50;71.90;;;;;;5047193;28;20041;-74
2022/06/29 01:52:46;;;;;;;0.00;0.00;;;17.50;71.80;;;;;;5048423;28;20045;-75
2022/06/29 01:55:12;;;;;;;0.00;0.00;;;17.50;71.60;;;;;;5047075;28;20056;-75
2022/06/29 01:57:38;;;;;;;0.00;0.00;;;17.50;71.70;;;;;;5048123;28;20037;-75
2022/06/29 02:00:04;;;;;;;0.00;0.00;;;17.50;72.00;;;;;;5048571;28;20055;-75
2022/06/29 02:02:30;;;;;;;0.00;0.00;;;17.50;72.10;;;;;;5048557;28;20052;-75
2022/06/29 02:04:55;;;;;;;0.00;0.00;;;17.40;72.20;;;;;;5048077;28;20033;-75
2022/06/29 02:07:21;;;;;;;0.00;0.00;;;17.40;72.50;;;;;;5048811;28;20476;-75
2022/06/29 02:09:46;;;;;;;0.00;0.00;;;17.50;72.40;;;;;;5047603;28;20049;-75
2022/06/29 02:12:12;;;;;;;0.00;0.00;;;17.40;72.20;;;;;;5048738;28;20045;-75
2022/06/29 02:14:37;;;;;;;0.00;0.00;;;17.40;72.20;;;;;;5049385;28;20041;-75
2022/06/29 02:17:03;;;;;;;0.00;0.00;;;17.40;72.50;;;;;;5051387;28;20493;-74
2022/06/29 02:19:29;;;;;;;0.00;0.00;;;17.40;72.30;;;;;;5067906;28;20048;-74
2022/06/29 02:21:54;;;;;;;0.00;0.00;;;17.40;72.60;;;;;;5052854;28;20045;-75
2022/06/29 02:24:20;;;;;;;0.00;0.00;;;17.40;72.80;;;;;;5051865;28;20045;-75
2022/06/29 02:26:46;;;;;;;0.00;0.00;;;17.50;72.20;;;;;;5051976;28;20127;-75
2022/06/29 02:29:11;;;;;;;0.00;0.00;;;17.50;72.50;;;;;;5051107;28;20049;-75
2022/06/29 02:37:05;;;;;;;0.00;0.00;;;17.50;73.20;;;;;;5051102;28;20131;-75
2022/06/29 02:39:31;;;;;;;0.00;0.00;;;17.50;73.10;;;;;;5051666;28;20128;-75
2022/06/29 02:41:57;;;;;;;0.00;0.00;;;17.50;73.10;;;;;;5050668;28;20078;-75
2022/06/29 02:44:22;;;;;;;0.00;0.00;;;17.60;73.00;;;;;;5051271;28;20467;-75
2022/06/29 02:46:48;;;;;;;0.00;0.00;;;17.50;72.60;;;;;;5051511;28;20048;-75
2022/06/29 02:49:13;;;;;;;0.00;0.00;;;17.60;72.60;;;;;;5051314;28;20178;-75
2022/06/29 02:51:39;;;;;;;0.00;0.00;;;17.50;72.50;;;;;;5051603;28;20053;-75
2022/06/29 02:54:05;;;;;;;0.00;0.00;;;17.60;72.50;;;;;;5050504;28;20612;-75
2022/06/29 02:56:30;;;;;;;0.00;0.00;;;17.60;72.70;;;;;;5050927;28;20048;-75
2022/06/29 02:58:56;;;;;;;0.00;0.00;;;17.50;73.00;;;;;;5051091;28;20041;-75
2022/06/29 03:01:21;;;;;;;0.00;0.00;;;17.50;73.20;;;;;;5051153;28;20095;-75
2022/06/29 03:03:47;;;;;;;0.00;0.00;;;17.50;73.20;;;;;;5033267;28;20546;-74
2022/06/29 03:06:13;;;;;;;0.00;0.00;;;17.50;73.00;;;;;;5051445;28;20056;-74
2022/06/29 03:08:38;;;;;;;0.00;0.00;;;17.50;72.80;;;;;;5066944;28;20052;-74
2022/06/29 03:11:04;;;;;;;0.00;0.00;;;17.50;73.00;;;;;;5050754;28;20056;-74
2022/06/29 03:13:30;;;;;;;0.00;0.00;;;17.50;72.80;;;;;;5051594;28;20128;-74
2022/06/29 03:15:55;;;;;;;0.00;0.00;;;17.50;72.70;;;;;;5050683;28;20044;-74
2022/06/29 03:18:21;;;;;;;0.00;0.00;;;17.50;73.40;;;;;;5050942;28;20476;-74
2022/06/29 03:20:47;;;;;;;0.00;0.00;;;17.40;73.00;;;;;;5050644;28;20489;-74
2022/06/29 03:23:12;;;;;;;0.00;0.00;;;17.40;72.80;;;;;;5050474;28;20076;-74
2022/06/29 03:25:38;;;;;;;0.00;0.00;;;17.40;73.30;;;;;;5049528;28;20049;-74
2022/06/29 03:28:04;;;;;;;0.00;0.00;;;17.40;73.50;;;;;;5049733;28;20052;-76
2022/06/29 03:30:29;;;;;;;0.00;0.00;;;17.30;73.40;;;;;;5050287;28;20049;-74
2022/06/29 03:32:55;;;;;;;0.00;0.00;;;17.30;73.40;;;;;;5050428;28;20044;-73
2022/06/29 03:35:21;;;;;;;0.00;0.00;;;17.30;73.20;;;;;;5049999;28;20045;-73
2022/06/29 03:37:46;;;;;;;0.00;0.00;;;17.30;73.00;;;;;;5050461;28;20098;-73
2022/06/29 03:40:12;;;;;;;0.00;0.00;;;17.30;72.90;;;;;;5048824;28;20040;-73
2022/06/29 03:42:38;;;;;;;0.00;0.00;;;17.30;73.10;;;;;;5049060;28;20076;-74
2022/06/29 03:45:04;;;;;;;0.00;0.00;;;17.30;73.50;;;;;;5050448;28;20052;-73
2022/06/29 03:47:29;;;;;;;0.00;0.00;;;17.30;73.50;;;;;;5050653;28;20057;-75
2022/06/29 03:49:55;;;;;;;0.00;0.00;;;17.30;73.40;;;;;;5050374;28;20094;-75
2022/06/29 03:52:21;;;;;;;0.00;0.00;;;17.30;73.40;;;;;;5049624;28;20076;-76
2022/06/29 03:54:46;;;;;;;0.00;0.00;;;17.30;73.60;;;;;;5049938;28;20045;-75
2022/06/29 03:57:12;;;;;;;0.00;0.00;;;17.30;73.60;;;;;;5050262;28;20506;-75
2022/06/29 03:59:37;;;;;;;0.00;0.00;;;17.40;73.70;;;;;;5050304;28;20052;-75
2022/06/29 04:02:03;;;;;;;0.00;0.00;;;17.40;73.60;;;;;;5050485;28;20049;-75
2022/06/29 04:04:29;;;;;;;0.00;0.00;;;17.40;73.40;;;;;;5049368;28;20033;-76
2022/06/29 04:06:54;;;;;;;0.00;0.00;;;17.40;73.30;;;;;;5049777;28;20053;-75
2022/06/29 04:09:20;;;;;;;0.00;0.00;;;17.50;73.40;;;;;;5050320;28;20063;-75
2022/06/29 04:11:49;;;;;;;0.00;0.00;;;17.50;73.60;;;;;;5050025;28;20139;-74
2022/06/29 04:14:15;;;;;;;0.00;0.00;;;17.60;73.70;;;;;;5042645;28;20045;-74
2022/06/29 04:16:41;;;;;;;0.00;0.00;;;17.60;73.30;;;;;;5044930;28;20052;-73
2022/06/29 04:19:07;;;;;;;0.00;0.00;;;17.60;73.60;;;;;;5049746;28;20037;-73
2022/06/29 04:21:33;;;;;;;0.00;0.00;;;17.60;73.60;;;;;;5049912;28;20187;-74
2022/06/29 04:23:59;;;;;;;0.00;0.00;;;17.70;73.50;;;;;;5049546;28;20155;-74
2022/06/29 04:26:24;;;;;;;0.00;0.00;;;17.70;73.20;;;;;;5046790;28;20405;-73
2022/06/29 04:28:50;;;;;;;0.00;0.00;;;17.70;73.20;;;;;;5048576;28;20057;-77
2022/06/29 04:31:16;;;;;;;0.00;0.00;;;17.70;73.10;;;;;;5049675;28;20041;-76
2022/06/29 04:33:41;;;;;;;0.00;0.00;;;17.80;73.00;;;;;;5048993;28;20063;-74
2022/06/29 04:36:07;;;;;;;0.00;0.00;;;17.80;73.00;;;;;;5049335;28;20053;-75
2022/06/29 04:38:33;;;;;;;0.00;0.00;;;17.80;73.10;;;;;;5051384;28;20061;-73
2022/06/29 04:40:59;;;;;;;0.10;0.10;;;17.80;73.20;;;;;;5067373;28;20063;-73
2022/06/29 04:43:27;;;;;;;0.00;0.00;;;17.80;73.10;;;;;;5057041;28;20045;-73
2022/06/29 04:48:38;;;;;;;0.00;0.00;;;17.80;73.10;;;;;;5049324;28;20137;-74
2022/06/29 04:51:04;;;;;;;0.90;0.13;;;17.90;73.00;;;;;;5047572;28;20123;-73
2022/06/29 04:53:29;;;;;;;0.00;0.00;;;17.90;73.10;;;;;;5048754;28;20060;-74
2022/06/29 04:55:55;;;;;;;0.08;0.08;;;17.80;72.70;;;;;;5048052;28;20057;-73
2022/06/29 04:58:20;;;;;;;0.00;0.00;;;17.80;72.80;;;;;;5043287;28;20446;-73
2022/06/29 05:00:46;;;;;;;0.00;0.00;;;17.80;73.00;;;;;;5040118;28;20078;-74
2022/06/29 05:03:12;;;;;;;0.00;0.00;;;17.80;73.30;;;;;;5048312;28;20057;-73
2022/06/29 05:05:38;;;;;;;0.00;0.00;;;17.80;73.00;;;;;;5048995;28;20069;-73
2022/06/29 05:08:04;;;;;;;0.00;0.00;;;17.90;73.00;;;;;;5048381;28;20638;-74
2022/06/29 05:10:30;;;;;;;0.00;0.00;;;17.90;72.90;;;;;;5048306;28;20060;-73
2022/06/29 05:12:57;;;;;;;0.00;0.00;;;17.90;73.30;;;;;;5048502;28;20087;-73
2022/06/29 05:15:22;;;;;;;0.00;0.00;;;18.00;73.50;;;;;;5030570;28;20057;-74
2022/06/29 05:17:48;;;;;;;0.00;0.00;;;18.00;73.30;;;;;;5047561;28;20056;-74
2022/06/29 05:20:14;;;;;;;0.00;0.00;;;18.10;72.80;;;;;;5047958;28;20053;-73
2022/06/29 05:22:40;;;;;;;0.00;0.00;;;18.10;72.90;;;;;;5047420;28;20718;-73
2022/06/29 05:25:07;;;;;;;0.00;0.00;;;18.10;72.60;;;;;;5048255;28;20040;-73
2022/06/29 05:27:33;;;;;;;0.00;0.00;;;18.10;72.70;;;;;;5047624;28;20052;-73
2022/06/29 05:29:59;;;;;;;0.00;0.00;;;18.10;72.40;;;;;;5047854;28;20060;-73
2022/06/29 05:32:25;;;;;;;0.00;0.00;;;18.00;72.70;;;;;;5059914;28;20409;-73
2022/06/29 05:34:50;;;;;;;0.00;0.00;;;18.10;72.60;;;;;;5049024;28;20037;-74
2022/06/29 05:37:16;;;;;;;0.03;0.03;;;18.10;72.40;;;;;;5045082;28;20041;-73
2022/06/29 05:39:44;;;;;;;0.00;0.00;;;18.10;72.30;;;;;;5038741;28;20049;-73
2022/06/29 05:42:12;;;;;;;0.00;0.00;;;18.10;72.70;;;;;;5028395;28;20709;-73
2022/06/29 05:44:38;;;;;;;0.00;0.00;;;18.20;72.90;;;;;;5043942;28;20057;-74
2022/06/29 05:47:04;;;;;;;0.03;0.03;;;18.20;72.50;;;;;;5048056;28;20124;-74
2022/06/29 05:49:30;;;;;;;0.00;0.00;;;18.30;72.60;;;;;;5046079;28;20064;-77
2022/06/29 05:51:56;;;;;;;0.00;0.00;;;18.30;72.60;;;;;;5050459;28;20198;-77
2022/06/29 05:54:21;;;;;;;0.00;0.00;;;18.30;72.50;;;;;;5049193;28;20049;-77
2022/06/29 05:56:47;;;;;;;0.00;0.00;;;18.40;72.30;;;;;;5052825;28;20410;-77
2022/06/29 05:59:13;;;;;;;0.00;0.00;;;18.40;72.40;;;;;;5051895;28;20463;-76
2022/06/29 06:01:38;;;;;;;0.00;0.00;;;18.50;72.30;;;;;;5049130;28;20128;-72
2022/06/29 06:04:04;;;;;;;0.00;0.00;;;18.50;72.60;;;;;;5032781;28;20049;-76
2022/06/29 06:06:30;;;;;;;0.00;0.00;;;18.50;72.70;;;;;;5032934;28;20139;-75
2022/06/29 06:08:55;;;;;;;0.00;0.00;;;18.60;72.40;;;;;;5034196;28;20123;-75
2022/06/29 06:11:21;;;;;;;0.00;0.00;;;18.60;72.00;;;;;;5053653;28;20052;-76
2022/06/29 06:13:48;;;;;;;0.00;0.00;;;18.70;72.00;;;;;;5051185;28;20034;-75
2022/06/29 06:16:13;;;;;;;0.00;0.00;;;18.80;71.90;;;;;;5051683;28;20064;-72
2022/06/29 06:18:39;;;;;;;0.00;0.00;;;18.80;71.70;;;;;;5051903;28;20067;-74
2022/06/29 06:21:05;;;;;;;0.00;0.00;;;18.90;71.40;;;;;;5052050;28;20056;-73
2022/06/29 06:23:30;;;;;;;0.00;0.00;;;19.00;71.40;;;;;;5051611;28;20048;-70
2022/06/29 06:25:56;;;;;;;0.00;0.00;;;19.00;71.00;;;;;;5066563;28;20123;-72
2022/06/29 06:28:22;;;;;;;0.00;0.00;;;19.00;71.10;;;;;;5033715;28;20056;-72
2022/06/29 06:30:47;;;;;;;0.00;0.00;;;19.10;71.00;;;;;;5050242;28;20098;-72
2022/06/29 06:33:13;;;;;;;0.00;0.00;;;19.10;71.00;;;;;;5050724;28;20131;-72
2022/06/29 06:35:38;;;;;;;0.00;0.00;;;19.20;71.20;;;;;;5051015;28;20041;-72
2022/06/29 06:38:04;;;;;;;0.00;0.00;;;19.30;70.60;;;;;;5051229;28;20056;-72
2022/06/29 06:43:14;;;;;;;0.00;0.00;;;19.40;70.60;;;;;;5046203;28;20061;-70
2022/06/29 06:45:39;;;;;;;0.00;0.00;;;19.50;70.50;;;;;;5041898;28;20405;-70
2022/06/29 06:48:05;;;;;;;0.00;0.00;;;19.60;70.70;;;;;;5048012;28;20095;-67
2022/06/29 06:50:31;;;;;;;0.00;0.00;;;19.60;70.60;;;;;;5051316;28;20405;-70
2022/06/29 06:52:57;;;;;;;0.00;0.00;;;19.70;70.40;;;;;;5051463;28;20045;-68
2022/06/29 06:55:22;;;;;;;0.00;0.00;;;19.70;70.00;;;;;;5050877;28;20525;-67
2022/06/29 06:57:48;;;;;;;0.00;0.00;;;19.80;69.90;;;;;;5051042;28;20072;-67
2022/06/29 07:00:14;;;;;;;0.00;0.00;;;19.90;69.90;;;;;;5041361;28;20408;-66
2022/06/29 07:02:40;;;;;;;0.00;0.00;;;20.00;69.90;;;;;;5036766;28;20045;-66
2022/06/29 07:05:06;;;;;;;0.00;0.00;;;20.00;69.90;;;;;;5050716;28;20060;-70
2022/06/29 07:07:32;;;;;;;0.00;0.00;;;20.10;69.70;;;;;;5045376;28;20041;-67
2022/06/29 07:09:58;;;;;;;0.00;0.00;;;20.10;68.00;;;;;;5041185;28;20044;-66
2022/06/29 07:12:23;;;;;;;0.00;0.00;;;20.20;67.40;;;;;;5050550;28;20049;-67
2022/06/29 07:14:52;;;;;;;0.00;0.00;;;20.30;66.20;;;;;;5064742;28;20056;-70
2022/06/29 07:17:18;;;;;;;0.00;0.00;;;20.30;65.70;;;;;;5047054;28;20494;-70
2022/06/29 07:19:43;;;;;;;0.00;0.00;;;20.50;66.60;;;;;;5049980;28;20045;-70
2022/06/29 07:22:09;;;;;;;0.00;0.00;;;20.50;67.20;;;;;;5050056;28;20387;-70
2022/06/29 07:24:35;;;;;;;0.00;0.00;;;20.60;66.90;;;;;;5049234;28;20477;-67
2022/06/29 07:27:01;;;;;;;0.00;0.00;;;20.60;65.60;;;;;;5048710;28;20561;-68
2022/06/29 07:29:26;;;;;;;0.00;0.00;;;20.70;66.70;;;;;;5048012;28;20048;-69
2022/06/29 07:31:52;;;;;;;0.00;0.00;;;20.80;66.20;;;;;;5049221;28;20037;-69
2022/06/29 07:34:17;;;;;;;0.00;0.00;;;20.80;65.80;;;;;;5049714;28;20131;-68
2022/06/29 07:36:43;;;;;;;0.00;0.00;;;20.90;64.90;;;;;;5050476;28;20120;-68
2022/06/29 07:39:09;;;;;;;0.00;0.00;;;21.00;65.40;;;;;;5028734;28;20045;-69
2022/06/29 07:41:36;;;;;;;0.00;0.00;;;21.00;65.40;;;;;;5049579;28;20053;-69
2022/06/29 07:44:05;;;;;;;0.00;0.00;;;21.10;65.80;;;;;;5048980;28;20084;-68
2022/06/29 07:46:30;;;;;;;0.00;0.00;;;21.20;65.20;;;;;;5049951;28;20124;-68
2022/06/29 07:48:56;;;;;;;0.00;0.00;;;21.20;65.60;;;;;;5049813;28;20792;-69
2022/06/29 07:51:22;;;;;;;0.00;0.00;;;21.30;65.00;;;;;;5049834;28;20563;-70
2022/06/29 07:53:48;;;;;;;0.00;0.00;;;21.40;64.70;;;;;;5065407;28;20429;-68
2022/06/29 07:56:16;;;;;;;0.00;0.00;;;21.50;64.50;;;;;;5049843;28;20053;-68
2022/06/29 07:58:42;;;;;;;0.00;0.00;;;21.50;64.30;;;;;;5047457;28;20167;-68
2022/06/29 08:01:07;;;;;;;0.00;0.00;;;21.50;64.10;;;;;;5039324;28;20053;-69
2022/06/29 08:03:33;;;;;;;0.00;0.00;;;21.60;65.50;;;;;;5046419;28;20079;-70
2022/06/29 08:06:00;;;;;;;0.00;0.00;;;21.70;64.10;;;;;;5048283;28;20136;-71
2022/06/29 08:08:26;;;;;;;0.00;0.00;;;21.80;64.30;;;;;;5064597;28;20037;-68
2022/06/29 08:10:52;;;;;;;0.00;0.00;;;21.90;64.60;;;;;;5047774;28;20155;-68
2022/06/29 08:13:18;;;;;;;0.00;0.00;;;22.00;64.00;;;;;;5040178;28;20037;-69
2022/06/29 08:15:45;;;;;;;0.00;0.00;;;22.00;63.60;;;;;;5046648;28;20128;-67
2022/06/29 08:18:12;;;;;;;0.00;0.00;;;22.10;63.90;;;;;;5046359;28;20060;-68
2022/06/29 08:20:38;;;;;;;0.00;0.00;;;22.10;63.30;;;;;;5047772;28;20044;-68
2022/06/29 08:23:05;;;;;;;0.00;0.00;;;22.20;63.60;;;;;;5048916;28;20804;-69
2022/06/29 08:25:31;;;;;;;0.00;0.00;;;22.20;62.90;;;;;;5050200;28;20168;-68
2022/06/29 08:27:57;;;;;;;0.00;0.00;;;22.20;63.20;;;;;;5050398;28;20055;-68
2022/06/29 08:30:23;;;;;;;0.00;0.00;;;22.30;63.40;;;;;;5065642;28;20082;-68
2022/06/29 08:32:49;;;;;;;0.00;0.00;;;22.40;63.10;;;;;;5069918;28;20079;-68
2022/06/29 08:35:16;;;;;;;0.00;0.00;;;22.50;62.70;;;;;;5052430;28;20052;-68
2022/06/29 08:37:44;;;;;;;0.00;0.00;;;22.50;62.40;;;;;;5053338;28;20144;-68
2022/06/29 08:40:13;;;;;;;0.00;0.00;;;22.60;62.80;;;;;;5043447;28;20040;-69
2022/06/29 08:42:39;;;;;;;0.00;0.00;;;22.60;61.70;;;;;;5048134;28;20515;-69
2022/06/29 08:45:07;;;;;;;0.00;0.00;;;22.80;62.40;;;;;;5048872;28;20037;-69
2022/06/29 08:47:33;;;;;;;0.20;0.20;;;22.80;62.50;;;;;;5048823;28;20453;-69
2022/06/29 08:49:58;;;;;;;0.00;0.00;;;22.90;61.30;;;;;;5049191;28;20055;-70
2022/06/29 08:52:28;;;;;;;0.00;0.00;;;23.00;62.30;;;;;;5049558;28;20041;-69
2022/06/29 08:54:54;;;;;;;0.00;0.00;;;23.00;62.50;;;;;;5048906;28;20502;-70
2022/06/29 08:57:22;;;;;;;0.00;0.00;;;23.10;62.40;;;;;;5048811;28;20051;-70
2022/06/29 08:59:51;;;;;;;0.00;0.00;;;23.20;60.60;;;;;;5049170;28;20071;-69
2022/06/29 09:02:16;;;;;;;0.00;0.00;;;23.30;58.90;;;;;;5040986;28;20080;-69
2022/06/29 09:04:42;;;;;;;0.00;0.00;;;23.30;59.30;;;;;;5046497;28;20569;-69
2022/06/29 09:07:08;;;;;;;0.00;0.00;;;23.40;60.40;;;;;;5049023;28;20033;-69
2022/06/29 09:10:07;;;;;;;0.00;0.00;;;23.50;60.60;;;;;;5048961;28;20049;-68
2022/06/29 09:12:33;;;;;;;0.00;0.00;;;23.70;59.20;;;;;;5047544;28;20410;-69
2022/06/29 09:15:00;;;;;;;0.00;0.00;;;23.80;57.60;;;;;;5045395;28;20052;-69
2022/06/29 09:17:30;;;;;;;0.00;0.00;;;23.80;58.20;;;;;;5048385;28;20102;-69
2022/06/29 09:19:56;;;;;;;0.00;0.00;;;23.90;58.10;;;;;;5048543;28;20040;-68
2022/06/29 09:22:22;;;;;;;0.00;0.00;;;23.90;58.60;;;;;;5048925;28;20079;-70
2022/06/29 09:24:48;;;;;;;0.00;0.00;;;24.00;59.10;;;;;;5048765;28;20498;-64
2022/06/29 09:27:14;;;;;;;0.05;0.05;;;24.00;59.70;;;;;;5048039;28;20124;-69
2022/06/29 09:29:41;;;;;;;0.00;0.00;;;24.10;58.80;;;;;;5048185;28;20543;-69
2022/06/29 09:32:08;;;;;;;0.00;0.00;;;24.10;59.70;;;;;;5048797;28;20044;-70
2022/06/29 09:34:50;;;;;;;0.03;0.03;;;24.20;58.80;;;;;;5048610;28;20164;-71
2022/06/29 09:37:21;;;;;;;0.00;0.00;;;24.30;58.40;;;;;;5048421;28;20076;-71
2022/06/29 09:39:51;;;;;;;0.00;0.00;;;24.40;57.60;;;;;;5048916;28;20053;-72
2022/06/29 09:42:26;;;;;;;0.00;0.00;;;24.50;58.50;;;;;;5030450;28;20048;-71
2022/06/29 09:44:52;;;;;;;0.00;0.00;;;24.50;58.80;;;;;;5047120;28;20045;-73
2022/06/29 09:47:20;;;;;;;0.00;0.00;;;24.50;57.90;;;;;;5048361;28;20116;-72
2022/06/29 09:49:53;;;;;;;0.03;0.03;;;24.60;56.00;;;;;;5048547;28;20068;-72
2022/06/29 09:52:19;;;;;;;0.00;0.00;;;24.70;56.40;;;;;;5046698;28;20037;-72
2022/06/29 09:54:54;;;;;;;0.00;0.00;;;24.70;56.00;;;;;;5023979;28;20045;-73
2022/06/29 09:57:23;;;;;;;0.00;0.00;;;24.80;56.80;;;;;;5038645;28;20453;-69
2022/06/29 10:02:45;;;;;;;0.10;0.10;;;24.90;55.60;;;;;;5044671;28;20464;-70
2022/06/29 10:05:15;;;;;;;0.00;0.00;;;25.00;54.90;;;;;;5045983;28;20106;-69
2022/06/29 10:07:43;;;;;;;0.00;0.00;;;25.00;55.30;;;;;;5047766;28;20049;-70
2022/06/29 10:10:15;;;;;;;0.00;0.00;;;25.10;54.30;;;;;;5036850;28;20523;-72
2022/06/29 10:15:56;;;;;;;0.00;0.00;;;25.20;55.70;;;;;;5047187;28;20127;-70
2022/06/29 10:19:02;;;;;;;0.20;0.20;;;25.20;54.30;;;;;;5044961;28;20061;-72
2022/06/29 10:21:31;;;;;;;0.00;0.00;;;25.30;53.60;;;;;;4982478;28;20056;-70
2022/06/29 10:23:57;;;;;;;0.00;0.00;;;25.30;55.20;;;;;;5033047;28;20059;-71
2022/06/29 10:26:35;;;;;;;0.00;0.00;;;25.40;54.30;;;;;;5045514;28;20060;-70
2022/06/29 10:29:10;;;;;;;0.00;0.00;;;25.50;54.50;;;;;;5047617;28;20049;-70
2022/06/29 10:31:51;;;;;;;0.00;0.00;;;25.50;55.60;;;;;;5028787;28;20049;-70
2022/06/29 10:35:05;;;;;;;0.00;0.00;;;25.60;55.30;;;;;;5023709;28;20037;-70
2022/06/29 10:37:26;;;;;;;0.00;0.00;;;25.60;54.90;;;;;;5048534;28;20118;-70
2022/06/29 10:39:53;;;;;;;0.00;0.00;;;25.70;55.20;;;;;;5050708;28;20036;-70
2022/06/29 10:45:16;;;;;;;0.00;0.00;;;25.80;53.30;;;;;;5042952;28;20057;-70
2022/06/29 10:47:55;;;;;;;0.00;0.00;;;25.90;53.90;;;;;;5041785;28;20049;-70
2022/06/29 10:50:22;;;;;;;0.00;0.00;;;25.90;53.60;;;;;;5037373;28;20041;-71
2022/06/29 10:52:53;;;;;;;0.10;0.10;;;26.00;53.90;;;;;;5049162;28;20128;-70
2022/06/29 10:55:19;;;;;;;;;;;26.00;50.30;;;;;;5051030;28;20060;-70
2022/06/29 10:57:46;;;;;;;0.00;0.00;;;26.10;51.30;;;;;;5049570;28;19927;-70
2022/06/29 11:00:21;;;;;;;0.00;0.00;;;26.20;50.90;;;;;;5049309;28;20546;-70
2022/06/29 11:02:47;;;;;;;0.45;0.32;;;26.30;50.70;;;;;;5047595;28;20044;-70
2022/06/29 11:05:14;;;;;;;0.00;0.00;;;26.30;50.70;;;;;;5049868;28;20037;-70
2022/06/29 11:12:01;;;;;;;0.28;0.28;;;26.50;51.30;;;;;;5048518;28;20061;-71
2022/06/29 11:13:29;;;;;;;0.00;0.00;;;26.50;47.60;;;;;;5049540;28;20045;-69
2022/06/29 11:15:57;;;;;;;0.00;0.00;;;26.60;49.10;;;;;;5041921;28;20053;-71
2022/06/29 11:18:29;;;;;;;0.00;0.00;;;26.80;50.30;;;;;;5035832;28;20386;-70
2022/06/29 11:21:02;;;;;;;0.00;0.00;;;26.80;48.70;;;;;;5037371;28;20053;-70
2022/06/29 11:23:32;;;;;;;0.00;0.00;;;26.90;48.50;;;;;;5039993;28;20449;-71
2022/06/29 11:25:58;;;;;;;0.00;0.00;;;27.00;46.70;;;;;;5039507;28;20051;-71
2022/06/29 11:28:29;;;;;;;0.00;0.00;;;27.10;46.80;;;;;;5039894;28;20098;-71
2022/06/29 11:31:02;;;;;;;0.00;0.00;;;27.20;47.60;;;;;;5046637;28;20410;-71
2022/06/29 11:33:37;;;;;;;0.00;0.00;;;27.20;46.90;;;;;;5049890;28;20091;-71
2022/06/29 11:36:24;;;;;;;0.93;0.93;;;27.30;47.70;;;;;;5046119;28;20045;-71
2022/06/29 11:38:52;;;;;;;0.00;0.00;;;27.50;47.80;;;;;;5049752;28;20045;-70
2022/06/29 11:41:20;;;;;;;0.00;0.00;;;27.50;48.00;;;;;;5050403;28;20046;-69
2022/06/29 11:43:57;;;;;;;0.05;0.05;;;27.50;45.20;;;;;;5050376;28;20052;-70
2022/06/29 11:46:25;;;;;;;0.00;0.00;;;27.70;46.00;;;;;;5046624;28;20052;-70
2022/06/29 11:51:53;;;;;;;0.00;0.00;;;27.90;44.80;;;;;;5050164;28;20550;-72
2022/06/29 11:54:37;;;;;;;0.00;0.00;;;28.00;47.50;;;;;;5040010;28;20032;-72
2022/06/29 11:57:08;;;;;;;0.00;0.00;;;28.00;46.00;;;;;;5050459;28;20055;-72
2022/06/29 11:59:34;;;;;;;;;;;28.00;43.80;;;;;;5042154;28;20043;-72
2022/06/29 12:02:00;;;;;;;0.00;0.00;;;28.00;46.20;;;;;;5047092;28;19924;-72
2022/06/29 12:04:31;;;;;;;0.00;0.00;;;28.10;46.30;;;;;;5050015;28;20041;-72
2022/06/29 12:07:07;;;;;;;0.00;0.00;;;28.20;47.00;;;;;;5050399;28;20033;-72
2022/06/29 12:09:33;;;;;;;0.00;0.00;;;28.20;44.80;;;;;;5048941;28;20063;-72
2022/06/29 12:11:59;;;;;;;0.00;0.00;;;28.20;45.70;;;;;;5048195;28;21725;-72
2022/06/29 12:14:24;;;;;;;0.03;0.00;;;28.30;44.60;;;;;;5050035;28;20045;-72
2022/06/29 12:16:50;;;;;;;0.00;0.00;;;28.20;43.80;;;;;;5049085;28;20041;-72
2022/06/29 12:19:16;;;;;;;0.00;0.00;;;28.10;44.50;;;;;;5049206;28;20045;-72
2022/06/29 12:21:41;;;;;;;0.00;0.00;;;28.00;45.90;;;;;;5061302;28;20496;-72
2022/06/29 12:24:07;;;;;;;0.03;0.00;;;28.20;47.00;;;;;;5049886;28;20040;-72
2022/06/29 12:26:32;;;;;;;0.00;0.00;;;28.30;44.70;;;;;;5048592;28;20095;-72
2022/06/29 12:28:58;;;;;;;0.00;0.00;;;28.30;42.30;;;;;;5032910;28;20037;-72
2022/06/29 12:31:24;;;;;;;0.00;0.00;;;28.20;43.40;;;;;;5047116;28;20045;-72
2022/06/29 12:33:49;;;;;;;0.00;0.00;;;28.20;44.80;;;;;;5048354;28;20047;-72
2022/06/29 12:36:15;;;;;;;0.00;0.00;;;28.10;41.40;;;;;;5049431;28;20049;-72
2022/06/29 12:38:41;;;;;;;0.00;0.00;;;28.20;44.20;;;;;;5048566;28;20037;-71
2022/06/29 12:41:07;;;;;;;0.20;0.15;;;28.40;45.00;;;;;;5049531;28;20055;-72
2022/06/29 12:43:33;;;;;;;0.00;0.00;;;28.50;44.20;;;;;;5048375;28;20051;-72
2022/06/29 12:45:59;;;;;;;0.00;0.00;;;28.60;42.00;;;;;;5049271;28;20131;-72
2022/06/29 12:48:25;;;;;;;0.00;0.00;;;28.70;41.00;;;;;;5042473;28;20540;-72
2022/06/29 12:50:51;;;;;;;0.00;0.00;;;28.80;42.70;;;;;;5048569;28;20049;-73
2022/06/29 12:53:16;;;;;;;0.10;0.03;;;28.70;44.00;;;;;;5044838;28;20794;-73
2022/06/29 12:55:42;;;;;;;0.10;0.10;;;28.50;44.30;;;;;;5046563;28;20137;-73
2022/06/29 12:58:08;;;;;;;0.00;0.00;;;28.40;42.80;;;;;;5047871;28;20730;-73
2022/06/29 13:00:34;;;;;;;0.00;0.00;;;28.40;42.00;;;;;;5047109;28;20061;-73
2022/06/29 13:03:00;;;;;;;0.00;0.00;;;28.50;41.70;;;;;;5047628;28;20041;-73
2022/06/29 13:05:26;;;;;;;0.00;0.00;;;28.50;42.70;;;;;;5047853;28;20053;-73
2022/06/29 13:07:52;;;;;;;0.00;0.00;;;28.60;44.70;;;;;;5048682;28;20130;-73
2022/06/29 13:10:17;;;;;;;0.00;0.00;;;28.80;45.60;;;;;;5047890;28;20064;-73
2022/06/29 13:12:43;;;;;;;0.00;0.00;;;29.00;43.40;;;;;;5048316;28;20116;-72